Time;durP1;ratioP1;P1;durP2;ratioP2;P2;SDS_P1;SDS_P2;PMS_P1;PMS_P2;Temp;Humidity;BMP_temperature;BMP_pressure;BME280_temperature;BME280_humidity;BME280_pressure;Samples;Min_cycle;Max_cycle;Signal;HPM_P1;HPM_P2
2024/04/20 15:58:29;;;;;;;0.03;0.03;;;8.70;99.90;;;;;;1215471;22;21505;-91
2024/04/20 16:00:55;;;;;;;0.10;0.10;;;;;;;;;;5054231;28;20113;-91
2024/04/20 16:03:21;;;;;;;0.10;0.10;;;;;;;;;;5041540;28;20020;-91
2024/04/20 16:05:47;;;;;;;0.10;0.10;;;;;;;;;;5048526;28;20418;-90
2024/04/20 16:08:13;;;;;;;0.03;0.03;;;;;;;;;;5034443;28;20051;-91
2024/04/20 16:10:39;;;;;;;0.10;0.10;;;;;;;;;;5043268;28;20484;-91
2024/04/20 16:13:05;;;;;;;0.03;0.03;;;;;;;;;;5045064;28;20081;-91
2024/04/20 16:15:34;;;;;;;0.10;0.10;;;;;;;;;;5045193;28;20020;-90
2024/04/20 16:18:00;;;;;;;0.10;0.10;;;;;;;;;;5045161;28;20080;-90
2024/04/20 16:20:26;;;;;;;0.10;0.10;;;;;;;;;;5057671;28;20575;-89
2024/04/20 16:22:53;;;;;;;0.00;0.00;;;;;;;;;;5044121;28;20000;-90
2024/04/20 16:25:21;;;;;;;0.10;0.10;;;;;;;;;;5047455;28;20004;-90
2024/04/20 16:27:47;;;;;;;0.10;0.10;;;;;;;;;;5027580;28;20020;-90
2024/04/20 16:30:21;;;;;;;0.00;0.00;;;;;;;;;;5048894;28;20444;-90
2024/04/20 16:32:53;;;;;;;0.03;0.03;;;7.40;99.90;;;;;;5048434;28;20003;-90
2024/04/20 16:35:21;;;;;;;0.10;0.10;;;;;;;;;;5024287;28;20052;-90
2024/04/20 16:37:47;;;;;;;0.10;0.10;;;;;;;;;;5018063;28;20378;-90
2024/04/20 17:18:53;;;;;;;0.10;0.10;;;;;;;;;;5090262;28;20454;-91
2024/04/20 17:21:18;;;;;;;0.00;0.00;;;;;;;;;;5067648;28;20003;-92
2024/04/20 17:23:45;;;;;;;0.00;0.00;;;8.20;99.90;;;;;;5069960;28;20391;-91
2024/04/20 17:26:15;;;;;;;0.10;0.10;;;;;;;;;;5052503;28;20014;-91
2024/04/20 17:28:44;;;;;;;;;;;8.20;99.90;;;;;;5073670;28;20003;-91
2024/04/20 17:33:44;;;;;;;0.00;0.00;;;;;;;;;;5096117;28;20044;-91
2024/04/20 17:36:11;;;;;;;0.10;0.10;;;;;;;;;;5092498;28;20007;-89
2024/04/20 17:38:37;;;;;;;0.00;0.00;;;;;;;;;;5084004;28;20010;-89
2024/04/20 17:41:03;;;;;;;0.00;0.00;;;;;;;;;;5116864;28;20592;-89
2024/04/20 17:43:29;;;;;;;0.10;0.10;;;;;;;;;;5092747;27;19991;-86
2024/04/20 17:46:02;;;;;;;0.10;0.10;;;7.70;99.90;;;;;;5105990;27;20044;-88
2024/04/20 17:48:31;;;;;;;0.10;0.10;;;7.70;99.90;;;;;;5081155;27;19995;-87
2024/04/20 17:50:57;;;;;;;0.10;0.10;;;7.70;99.90;;;;;;5076344;27;19995;-87
2024/04/20 17:53:26;;;;;;;0.10;0.10;;;8.00;99.90;;;;;;5072532;27;20003;-88
2024/04/20 17:55:53;;;;;;;0.08;0.08;;;;;;;;;;5066667;28;20007;-90
2024/04/20 17:58:19;;;;;;;0.10;0.10;;;;;;;;;;5104572;28;20022;-89
2024/04/20 18:01:19;;;;;;;0.10;0.10;;;7.50;99.90;;;;;;5075313;28;20006;-88
2024/04/20 18:03:44;;;;;;;0.10;0.10;;;;;;;;;;5083012;27;20017;-89
2024/04/20 18:06:12;;;;;;;0.08;0.08;;;7.50;99.90;;;;;;5052778;28;20015;-91
2024/04/20 18:08:38;;;;;;;0.10;0.10;;;;;;;;;;5058744;28;20018;-91
2024/04/20 18:11:15;;;;;;;0.10;0.10;;;7.50;99.90;;;;;;5053178;27;20014;-90
2024/04/20 18:13:48;;;;;;;0.00;0.00;;;7.40;99.90;;;;;;5060441;27;20005;-89
2024/04/20 18:16:16;;;;;;;0.10;0.10;;;7.30;99.90;;;;;;5059241;28;20543;-89
2024/04/20 18:18:42;;;;;;;0.10;0.10;;;;;;;;;;5053567;28;20061;-88
2024/04/20 18:21:09;;;;;;;0.00;0.00;;;;;;;;;;5061734;28;20014;-91
2024/04/20 18:23:35;;;;;;;0.05;0.05;;;7.20;99.90;;;;;;5052227;28;20021;-90
2024/04/20 18:26:01;;;;;;;0.00;0.00;;;;;;;;;;5060695;28;20007;-89
2024/04/20 18:28:27;;;;;;;0.10;0.10;;;;;;;;;;5055132;28;20013;-89
2024/04/20 18:30:53;;;;;;;0.10;0.10;;;;;;;;;;5077814;27;20062;-89
2024/04/20 18:33:22;;;;;;;0.10;0.10;;;;;;;;;;5058774;28;20014;-89
2024/04/20 18:35:58;;;;;;;0.10;0.10;;;7.20;99.90;;;;;;5090129;28;20019;-88
2024/04/20 18:38:25;;;;;;;0.10;0.10;;;;;;;;;;5083998;28;19999;-89
2024/04/20 18:40:52;;;;;;;0.10;0.10;;;7.20;99.90;;;;;;5087599;28;20017;-91
2024/04/20 18:43:18;;;;;;;0.10;0.10;;;;;;;;;;5093281;28;20006;-89
2024/04/20 18:45:43;;;;;;;0.10;0.10;;;;;;;;;;5058326;28;20063;-92
2024/04/20 18:48:09;;;;;;;0.00;0.00;;;;;;;;;;5089784;28;20017;-90
2024/04/20 18:50:35;;;;;;;0.10;0.10;;;;;;;;;;5093965;28;20006;-91
2024/04/20 18:53:02;;;;;;;0.10;0.10;;;7.20;99.90;;;;;;5082117;27;20031;-91
2024/04/20 18:55:28;;;;;;;0.10;0.10;;;;;;;;;;5049882;28;20060;-90
2024/04/20 18:57:54;;;;;;;0.00;0.00;;;;;;;;;;5085015;28;20030;-90
2024/04/20 19:00:20;;;;;;;0.10;0.10;;;;;;;;;;5080163;28;20002;-90
2024/04/20 19:02:46;;;;;;;0.10;0.10;;;;;;;;;;5100377;28;20494;-89
2024/04/20 19:05:12;;;;;;;0.00;0.00;;;;;;;;;;5060688;28;20003;-90
2024/04/20 19:07:40;;;;;;;0.00;0.00;;;7.10;99.90;;;;;;5060031;28;20009;-89
2024/04/20 19:10:06;;;;;;;0.05;0.05;;;;;;;;;;5062276;27;20022;-90
2024/04/20 19:12:32;;;;;;;0.10;0.10;;;;;;;;;;5097934;28;20015;-90
2024/04/20 19:14:58;;;;;;;0.00;0.00;;;;;;;;;;5087645;28;20489;-89
2024/04/20 19:17:24;;;;;;;0.10;0.10;;;;;;;;;;5068623;28;20005;-88
2024/04/20 19:19:50;;;;;;;0.10;0.10;;;7.10;99.90;;;;;;5066565;28;20021;-89
2024/04/20 19:22:16;;;;;;;0.10;0.10;;;;;;;;;;5075057;28;19990;-87
2024/04/20 19:24:43;;;;;;;0.10;0.10;;;7.10;99.90;;;;;;5096918;27;20005;-89
2024/04/20 19:27:10;;;;;;;0.00;0.00;;;;;;;;;;5074211;27;20010;-90
2024/04/20 19:29:37;;;;;;;0.10;0.10;;;;;;;;;;5095123;27;20011;-88
2024/04/20 19:32:03;;;;;;;0.10;0.10;;;7.10;99.90;;;;;;5068389;27;19999;-89
2024/04/20 19:34:29;;;;;;;0.00;0.00;;;;;;;;;;5068083;28;20049;-88
2024/04/20 19:36:56;;;;;;;0.00;0.00;;;;;;;;;;5100268;27;20021;-89
2024/04/20 19:39:22;;;;;;;0.10;0.10;;;;;;;;;;5104443;27;20003;-90
2024/04/20 19:41:48;;;;;;;0.10;0.10;;;;;;;;;;5105432;27;19998;-89
2024/04/20 19:44:14;;;;;;;0.00;0.00;;;;;;;;;;5071542;27;20052;-90
2024/04/20 19:46:40;;;;;;;0.03;0.03;;;;;;;;;;5068263;27;20019;-88
2024/04/20 19:49:06;;;;;;;0.10;0.10;;;;;;;;;;5095272;28;19995;-89
2024/04/20 19:51:32;;;;;;;0.10;0.10;;;;;;;;;;5070758;27;20026;-89
2024/04/20 19:54:00;;;;;;;0.08;0.08;;;;;;;;;;5098235;27;20007;-87
2024/04/20 19:56:26;;;;;;;0.10;0.10;;;;;;;;;;5094235;27;20027;-88
2024/04/20 19:58:52;;;;;;;0.03;0.03;;;;;;;;;;5091672;27;20003;-86
2024/04/20 20:01:19;;;;;;;0.10;0.10;;;;;;;;;;5093332;27;20010;-88
2024/04/20 20:03:45;;;;;;;0.10;0.10;;;;;;;;;;5108406;27;19999;-88
2024/04/20 20:06:15;;;;;;;0.00;0.00;;;6.80;99.90;;;;;;5085292;27;19998;-87
2024/04/20 20:08:41;;;;;;;0.10;0.10;;;;;;;;;;5084285;27;19999;-85
2024/04/20 20:11:09;;;;;;;0.10;0.10;;;6.70;99.90;;;;;;5100118;27;20010;-92
2024/04/20 20:13:35;;;;;;;0.10;0.10;;;;;;;;;;5041599;28;20000;-91
2024/04/20 20:16:12;;;;;;;0.10;0.10;;;6.70;99.90;;;;;;5075616;28;20011;-92
2024/04/20 20:18:39;;;;;;;0.05;0.05;;;6.70;99.90;;;;;;5054914;28;20003;-92
2024/04/20 20:21:05;;;;;;;0.00;0.00;;;6.60;99.90;;;;;;5069843;28;20010;-92
2024/04/20 20:23:31;;;;;;;0.00;0.00;;;;;;;;;;5081254;28;20007;-91
2024/04/20 20:26:10;;;;;;;0.10;0.10;;;6.60;99.90;;;;;;5055575;28;20010;-91
2024/04/20 20:28:36;;;;;;;0.10;0.10;;;;;;;;;;5085781;28;19999;-90
2024/04/20 20:31:03;;;;;;;0.10;0.10;;;6.50;99.90;;;;;;5076475;28;20025;-91
2024/04/20 20:33:31;;;;;;;0.10;0.10;;;;;;;;;;5054205;28;20022;-91
2024/04/20 20:35:57;;;;;;;0.10;0.10;;;;;;;;;;5059675;28;20018;-92
2024/04/20 20:38:23;;;;;;;0.10;0.10;;;;;;;;;;5060551;28;20011;-92
2024/04/20 20:40:57;;;;;;;0.00;0.00;;;6.40;99.90;;;;;;5088964;28;20008;-91
2024/04/20 20:43:23;;;;;;;0.10;0.10;;;;;;;;;;5052066;28;20056;-91
2024/04/20 20:45:58;;;;;;;0.10;0.10;;;6.50;99.90;;;;;;5083177;28;20007;-92
2024/04/20 20:48:24;;;;;;;0.00;0.00;;;;;;;;;;5074720;27;20007;-93
2024/04/20 20:51:19;;;;;;;0.10;0.10;;;6.50;99.90;;;;;;5080490;27;20478;-92
2024/04/20 20:53:45;;;;;;;0.10;0.10;;;;;;;;;;5054705;28;20002;-92
2024/04/20 20:56:12;;;;;;;0.00;0.00;;;;;;;;;;5076991;28;20024;-92
2024/04/20 20:58:38;;;;;;;0.10;0.10;;;;;;;;;;5081580;28;20002;-91
2024/04/20 21:01:05;;;;;;;0.00;0.00;;;6.40;99.90;;;;;;5057808;28;20065;-92
2024/04/20 21:03:32;;;;;;;0.08;0.08;;;6.40;99.90;;;;;;5053857;28;20014;-91
2024/04/20 21:05:59;;;;;;;0.10;0.10;;;6.40;99.90;;;;;;5046461;28;20006;-90
2024/04/20 21:08:27;;;;;;;0.00;0.00;;;6.50;99.90;;;;;;5048453;28;20023;-93
2024/04/20 21:10:56;;;;;;;0.10;0.10;;;6.50;99.90;;;;;;5051344;28;20010;-92
2024/04/20 21:13:22;;;;;;;0.10;0.10;;;;;;;;;;5074899;28;20007;-93
2024/04/20 21:15:58;;;;;;;0.10;0.10;;;6.40;99.90;;;;;;5089187;28;20002;-92
2024/04/20 21:18:24;;;;;;;0.00;0.00;;;;;;;;;;5058639;28;20017;-93
2024/04/20 21:20:53;;;;;;;0.05;0.05;;;;;;;;;;5056912;28;20018;-92
2024/04/20 21:27:04;;;;;;;0.10;0.10;;;;;;;;;;5094263;28;20013;-92
2024/04/20 21:32:37;;;;;;;0.00;0.00;;;;;;;;;;5064564;28;20109;-87
2024/04/20 21:35:02;;;;;;;0.10;0.10;;;6.30;99.90;;;;;;5061553;28;20003;-88
2024/04/20 21:37:35;;;;;;;0.00;0.00;;;6.00;99.90;;;;;;5066055;28;20465;-87
2024/04/20 21:40:07;;;;;;;0.10;0.10;;;;;;;;;;5085325;27;20144;-88
2024/04/20 21:42:33;;;;;;;0.10;0.10;;;;;;;;;;5109503;27;20006;-88
2024/04/20 21:44:58;;;;;;;0.03;0.03;;;5.40;99.90;;;;;;5092620;27;20463;-88
2024/04/20 21:47:24;;;;;;;0.00;0.00;;;;;;;;;;5111554;27;20038;-88
2024/04/20 21:49:50;;;;;;;0.10;0.10;;;;;;;;;;5086823;27;20360;-87
2024/04/20 21:52:16;;;;;;;0.10;0.10;;;;;;;;;;5106129;27;20525;-86
2024/04/20 21:54:42;;;;;;;0.08;0.08;;;;;;;;;;5092253;27;20020;-88
2024/04/20 21:57:08;;;;;;;0.10;0.10;;;;;;;;;;5087895;27;20079;-86
2024/04/20 21:59:33;;;;;;;0.00;0.00;;;5.40;99.90;;;;;;5095472;27;20016;-87
2024/04/20 22:01:59;;;;;;;0.00;0.00;;;;;;;;;;5090002;28;20469;-86
2024/04/20 22:04:25;;;;;;;0.10;0.10;;;;;;;;;;5109585;27;20477;-86
2024/04/20 22:06:51;;;;;;;0.00;0.00;;;;;;;;;;5104628;27;20016;-87
2024/04/20 22:09:17;;;;;;;0.10;0.10;;;;;;;;;;5100651;27;20463;-87
2024/04/20 22:11:43;;;;;;;0.00;0.00;;;;;;;;;;5095003;27;20037;-86
2024/04/20 22:14:09;;;;;;;0.10;0.10;;;;;;;;;;5094503;27;20461;-85
2024/04/20 22:16:35;;;;;;;0.10;0.10;;;;;;;;;;5092179;27;20029;-86
2024/04/20 22:19:01;;;;;;;0.10;0.10;;;;;;;;;;5093719;27;20016;-87
2024/04/20 22:21:27;;;;;;;0.10;0.10;;;5.00;99.90;;;;;;5087907;27;20002;-87
2024/04/20 22:23:52;;;;;;;0.10;0.10;;;;;;;;;;5089018;27;20451;-86
2024/04/20 22:26:18;;;;;;;0.10;0.10;;;;;;;;;;5084036;27;20149;-88
2024/04/20 22:28:44;;;;;;;0.00;0.00;;;;;;;;;;5086208;27;20009;-87
2024/04/20 22:31:10;;;;;;;0.10;0.10;;;;;;;;;;5091831;27;20002;-87
2024/04/20 22:33:36;;;;;;;0.00;0.00;;;;;;;;;;5094195;27;20006;-86
2024/04/20 22:36:05;;;;;;;0.10;0.10;;;;;;;;;;5109507;27;20020;-86
2024/04/20 22:38:31;;;;;;;0.10;0.10;;;;;;;;;;5092943;27;20007;-87
2024/04/20 22:40:56;;;;;;;0.10;0.10;;;;;;;;;;5084968;27;20022;-87
2024/04/20 22:43:22;;;;;;;0.00;0.00;;;4.00;99.90;;;;;;5099706;27;20087;-87
2024/04/20 22:45:48;;;;;;;0.03;0.03;;;4.00;99.90;;;;;;5096731;27;20090;-87
2024/04/20 22:48:14;;;;;;;0.10;0.10;;;;;;;;;;5094101;27;20548;-87
2024/04/20 22:50:40;;;;;;;0.00;0.00;;;;;;;;;;5093952;27;20010;-87
2024/04/20 22:53:05;;;;;;;0.05;0.05;;;;;;;;;;5097101;27;20006;-87
2024/04/20 22:55:31;;;;;;;0.00;0.00;;;;;;;;;;5095125;27;20161;-87
2024/04/20 22:57:58;;;;;;;0.00;0.00;;;;;;;;;;5101229;27;20022;-87
2024/04/20 23:00:24;;;;;;;0.00;0.00;;;;;;;;;;5125795;27;20420;-88
2024/04/20 23:02:49;;;;;;;0.10;0.10;;;4.30;99.90;;;;;;5091625;27;20014;-88
2024/04/20 23:05:16;;;;;;;0.10;0.10;;;;;;;;;;5092512;27;20085;-87
2024/04/20 23:07:43;;;;;;;0.10;0.10;;;;;;;;;;5100218;27;20014;-87
2024/04/20 23:10:08;;;;;;;0.10;0.10;;;;;;;;;;5086180;27;20480;-87
2024/04/20 23:12:34;;;;;;;0.00;0.00;;;4.50;99.90;;;;;;5086620;27;20003;-87
2024/04/20 23:14:59;;;;;;;0.10;0.10;;;4.50;99.90;;;;;;5087876;27;20014;-87
2024/04/20 23:17:25;;;;;;;0.10;0.10;;;;;;;;;;5087646;27;20101;-87
2024/04/20 23:19:51;;;;;;;0.10;0.10;;;;;;;;;;5084817;27;20233;-87
2024/04/20 23:22:17;;;;;;;0.00;0.00;;;;;;;;;;5087700;27;20096;-86
2024/04/20 23:24:43;;;;;;;0.10;0.10;;;;;;;;;;5093545;27;20014;-87
2024/04/20 23:27:09;;;;;;;0.10;0.10;;;;;;;;;;5086952;27;19998;-87
2024/04/20 23:29:35;;;;;;;0.10;0.10;;;4.70;99.90;;;;;;5108320;27;20007;-87
2024/04/20 23:32:00;;;;;;;0.10;0.10;;;;;;;;;;5084601;27;19999;-86
2024/04/20 23:34:26;;;;;;;0.10;0.10;;;4.60;99.90;;;;;;5086571;27;20003;-87
2024/04/20 23:36:52;;;;;;;0.00;0.00;;;;;;;;;;5088844;27;20014;-86
2024/04/20 23:39:17;;;;;;;0.10;0.10;;;5.00;99.90;;;;;;5092375;27;20006;-87
2024/04/20 23:41:43;;;;;;;0.10;0.10;;;;;;;;;;5094388;27;20010;-87
2024/04/20 23:44:09;;;;;;;0.10;0.10;;;;;;;;;;5083473;27;20011;-87
2024/04/20 23:46:35;;;;;;;0.10;0.10;;;;;;;;;;5106435;27;20010;-87
2024/04/20 23:49:00;;;;;;;0.00;0.00;;;6.20;99.90;;;;;;5109983;27;20531;-87
2024/04/20 23:51:26;;;;;;;0.10;0.10;;;5.10;99.90;;;;;;5093297;27;20021;-87
2024/04/20 23:53:52;;;;;;;0.10;0.10;;;;;;;;;;5117674;27;19999;-85
2024/04/20 23:56:17;;;;;;;0.00;0.00;;;5.10;99.90;;;;;;5101784;27;20452;-87
2024/04/20 23:58:43;;;;;;;0.00;0.00;;;;;;;;;;5086959;27;20013;-87
